DAL68 RCTP-KSEA
Flight info
| Callsign | DAL68 |
|---|---|
| Flight time | N/A |
| Altitude | 37000 |
| Route | MOLKA1A ROBIN R583 BORDO Z29 GAKIA Y293 YULIA Y57 POROT Y809 IDLAN Y812 ADNAP/N0481F390 OTR5 KALNA DCT 45N160E 50N170E DCT EYETI DCT RADIC/N0493F410 DCT 55N160W 56N150W DCT PHINK DCT KATCH DCT YZT Q902 VIXOR MARNR8 |
| Aircraft | A359/H-SDE2E3GHIJ3J4J5LM1ORWXY/LB1D1 |
Departure
| Time | 2026-05-08 00:52 |
|---|---|
| Airport | Taiwan Taoyuan International Airport (RCTP) |
Arrival
| Time | N/A |
|---|---|
| Airport | Seattle–Tacoma International Airport (KSEA) |
| Time | Latitude | Longitude | Altitude | Speed | Heading |
|---|---|---|---|---|---|
| 2026-05-08 00:19 | 25.07806 | 121.22918 | 107 ft | 0 kts | 139° |
| 2026-05-08 00:40 | 25.07822 | 121.22903 | 105 ft | 4 kts | 139° |
| 2026-05-08 00:40 | 25.07842 | 121.22884 | 104 ft | 4 kts | 139° |
| 2026-05-08 00:40 | 25.07863 | 121.22864 | 104 ft | 4 kts | 139° |
| 2026-05-08 00:40 | 25.07882 | 121.22847 | 105 ft | 4 kts | 161° |
| 2026-05-08 00:41 | 25.07897 | 121.22851 | 104 ft | 4 kts | 240° |
| 2026-05-08 00:41 | 25.07911 | 121.22876 | 104 ft | 3 kts | 231° |
| 2026-05-08 00:41 | 25.07916 | 121.22883 | 104 ft | 0 kts | 229° |
| 2026-05-08 00:45 | 25.07900 | 121.22863 | 103 ft | 10 kts | 230° |
| 2026-05-08 00:45 | 25.07833 | 121.22777 | 105 ft | 17 kts | 229° |
| 2026-05-08 00:45 | 25.07753 | 121.22675 | 106 ft | 18 kts | 229° |
| 2026-05-08 00:45 | 25.07670 | 121.22568 | 104 ft | 19 kts | 229° |
| 2026-05-08 00:46 | 25.07582 | 121.22456 | 107 ft | 20 kts | 229° |
| 2026-05-08 00:46 | 25.07491 | 121.22340 | 104 ft | 20 kts | 229° |
| 2026-05-08 00:46 | 25.07397 | 121.22219 | 107 ft | 21 kts | 229° |
| 2026-05-08 00:46 | 25.07299 | 121.22095 | 107 ft | 22 kts | 229° |
| 2026-05-08 00:47 | 25.07198 | 121.21966 | 107 ft | 23 kts | 229° |
| 2026-05-08 00:47 | 25.07141 | 121.21892 | 105 ft | 0 kts | 229° |
| 2026-05-08 00:47 | 25.07138 | 121.21888 | 105 ft | 4 kts | 229° |
| 2026-05-08 00:47 | 25.07107 | 121.21841 | 105 ft | 8 kts | 247° |
| 2026-05-08 00:48 | 25.07125 | 121.21790 | 105 ft | 8 kts | 314° |
| 2026-05-08 00:48 | 25.07151 | 121.21762 | 105 ft | 8 kts | 318° |
| 2026-05-08 00:48 | 25.07196 | 121.21718 | 105 ft | 9 kts | 319° |
| 2026-05-08 00:48 | 25.07200 | 121.21715 | 105 ft | 0 kts | 319° |
| 2026-05-08 00:49 | 25.07203 | 121.21712 | 106 ft | 3 kts | 319° |
| 2026-05-08 00:50 | 25.07221 | 121.21695 | 104 ft | 7 kts | 319° |
| 2026-05-08 00:50 | 25.07269 | 121.21649 | 105 ft | 11 kts | 319° |
| 2026-05-08 00:50 | 25.07320 | 121.21641 | 105 ft | 5 kts | 27° |
| 2026-05-08 00:50 | 25.07339 | 121.21662 | 106 ft | 0 kts | 47° |
| 2026-05-08 00:51 | 25.07409 | 121.21749 | 105 ft | 43 kts | 49° |
| 2026-05-08 00:51 | 25.07735 | 121.22165 | 107 ft | 99 kts | 49° |
| 2026-05-08 00:52 | 25.08296 | 121.22877 | 104 ft | 146 kts | 49° |
| 2026-05-08 00:52 | 25.09033 | 121.23816 | 402 ft | 161 kts | 43° |
| 2026-05-08 00:52 | 25.09714 | 121.24710 | 1110 ft | 149 kts | 45° |
| 2026-05-08 00:52 | 25.10411 | 121.25591 | 1505 ft | 155 kts | 46° |
| 2026-05-08 00:53 | 25.11171 | 121.26503 | 1827 ft | 168 kts | 45° |
| 2026-05-08 00:53 | 25.11999 | 121.27497 | 2056 ft | 186 kts | 48° |
| 2026-05-08 00:53 | 25.12885 | 121.28653 | 2207 ft | 208 kts | 49° |
| 2026-05-08 00:53 | 25.13858 | 121.29949 | 2401 ft | 230 kts | 50° |
| 2026-05-08 00:54 | 25.14929 | 121.31360 | 2681 ft | 247 kts | 49° |
| 2026-05-08 00:54 | 25.16063 | 121.32841 | 3119 ft | 257 kts | 50° |
| 2026-05-08 00:54 | 25.17233 | 121.34367 | 3642 ft | 264 kts | 50° |
| 2026-05-08 00:54 | 25.18438 | 121.35935 | 4178 ft | 270 kts | 49° |
| 2026-05-08 00:55 | 25.19666 | 121.37531 | 4717 ft | 276 kts | 49° |
| 2026-05-08 00:55 | 25.20925 | 121.39168 | 5224 ft | 281 kts | 50° |
| 2026-05-08 00:55 | 25.22180 | 121.40799 | 5855 ft | 283 kts | 50° |
| 2026-05-08 00:55 | 25.23467 | 121.42474 | 6458 ft | 288 kts | 49° |
| 2026-05-08 00:56 | 25.24773 | 121.44173 | 7031 ft | 292 kts | 49° |
| 2026-05-08 00:56 | 25.26102 | 121.45904 | 7589 ft | 297 kts | 49° |
| 2026-05-08 00:56 | 25.27384 | 121.47706 | 8239 ft | 301 kts | 58° |
| 2026-05-08 00:56 | 25.28195 | 121.49839 | 8805 ft | 307 kts | 76° |
| 2026-05-08 00:57 | 25.28680 | 121.52161 | 9325 ft | 314 kts | 79° |
| 2026-05-08 00:57 | 25.29122 | 121.54525 | 10010 ft | 314 kts | 79° |
| 2026-05-08 00:57 | 25.29572 | 121.56914 | 10496 ft | 325 kts | 79° |
| 2026-05-08 00:57 | 25.30050 | 121.59416 | 10768 ft | 341 kts | 78° |
| 2026-05-08 00:58 | 25.30559 | 121.62038 | 11138 ft | 356 kts | 78° |
| 2026-05-08 00:58 | 25.31080 | 121.64774 | 11582 ft | 371 kts | 79° |
| 2026-05-08 00:58 | 25.31616 | 121.67616 | 11855 ft | 384 kts | 78° |
| 2026-05-08 00:58 | 25.32192 | 121.70528 | 12101 ft | 396 kts | 78° |
| 2026-05-08 00:59 | 25.32789 | 121.73536 | 12410 ft | 405 kts | 78° |
| 2026-05-08 00:59 | 25.33399 | 121.76595 | 12794 ft | 410 kts | 77° |
| 2026-05-08 00:59 | 25.34009 | 121.79690 | 13227 ft | 414 kts | 78° |
| 2026-05-08 00:59 | 25.34613 | 121.82820 | 13632 ft | 419 kts | 78° |
| 2026-05-08 01:00 | 25.35224 | 121.85982 | 14003 ft | 423 kts | 78° |
| 2026-05-08 01:00 | 25.35842 | 121.89182 | 14406 ft | 425 kts | 78° |
| 2026-05-08 01:00 | 25.36461 | 121.92388 | 14831 ft | 427 kts | 78° |
| 2026-05-08 01:00 | 25.37083 | 121.95608 | 15247 ft | 429 kts | 78° |
| 2026-05-08 01:01 | 25.37706 | 121.98840 | 15663 ft | 431 kts | 78° |
| 2026-05-08 01:01 | 25.38334 | 122.02097 | 16051 ft | 434 kts | 78° |
| 2026-05-08 01:01 | 25.38964 | 122.05367 | 16451 ft | 436 kts | 78° |
| 2026-05-08 01:01 | 25.39596 | 122.08656 | 16796 ft | 440 kts | 78° |
| 2026-05-08 01:02 | 25.40232 | 122.11966 | 17200 ft | 441 kts | 78° |
| 2026-05-08 01:02 | 25.40871 | 122.15300 | 17600 ft | 443 kts | 78° |
| 2026-05-08 01:02 | 25.41513 | 122.18645 | 17962 ft | 446 kts | 78° |
| 2026-05-08 01:02 | 25.42289 | 122.21975 | 18318 ft | 448 kts | 73° |
| 2026-05-08 01:03 | 25.43247 | 122.25265 | 18637 ft | 450 kts | 70° |
| 2026-05-08 01:03 | 25.44284 | 122.28486 | 18959 ft | 452 kts | 69° |
| 2026-05-08 01:03 | 25.45393 | 122.31797 | 19272 ft | 454 kts | 69° |
| 2026-05-08 01:03 | 25.46482 | 122.35029 | 19587 ft | 456 kts | 69° |
| 2026-05-08 01:04 | 25.47585 | 122.38332 | 19873 ft | 459 kts | 69° |
| 2026-05-08 01:04 | 25.48681 | 122.41655 | 20177 ft | 461 kts | 69° |
| 2026-05-08 01:04 | 25.49773 | 122.45001 | 20540 ft | 462 kts | 69° |
| 2026-05-08 01:04 | 25.50857 | 122.48350 | 20876 ft | 464 kts | 69° |
| 2026-05-08 01:05 | 25.51964 | 122.51722 | 21199 ft | 465 kts | 68° |
| 2026-05-08 01:05 | 25.53108 | 122.55078 | 21514 ft | 467 kts | 68° |
| 2026-05-08 01:05 | 25.54272 | 122.58441 | 21842 ft | 469 kts | 68° |
| 2026-05-08 01:05 | 25.55448 | 122.61826 | 22162 ft | 471 kts | 68° |
| 2026-05-08 01:06 | 25.56625 | 122.65229 | 22450 ft | 474 kts | 68° |
| 2026-05-08 01:06 | 25.57803 | 122.68650 | 22779 ft | 476 kts | 68° |
| 2026-05-08 01:06 | 25.58979 | 122.72082 | 23121 ft | 478 kts | 68° |
| 2026-05-08 01:06 | 25.60156 | 122.75530 | 23439 ft | 480 kts | 68° |
| 2026-05-08 01:07 | 25.61337 | 122.78996 | 23742 ft | 481 kts | 68° |
| 2026-05-08 01:07 | 25.62520 | 122.82475 | 23990 ft | 484 kts | 68° |
| 2026-05-08 01:07 | 25.63708 | 122.85971 | 24232 ft | 486 kts | 68° |
| 2026-05-08 01:07 | 25.64900 | 122.89481 | 24464 ft | 488 kts | 68° |
| 2026-05-08 01:08 | 25.66097 | 122.93028 | 24599 ft | 495 kts | 68° |
| 2026-05-08 01:08 | 25.67302 | 122.96620 | 24877 ft | 497 kts | 68° |
| 2026-05-08 01:08 | 25.68504 | 123.00215 | 25182 ft | 498 kts | 68° |
| 2026-05-08 01:08 | 25.69708 | 123.03819 | 25488 ft | 500 kts | 68° |
| 2026-05-08 01:09 | 25.70925 | 123.07445 | 25792 ft | 502 kts | 68° |
| 2026-05-08 01:09 | 25.72146 | 123.11077 | 26101 ft | 505 kts | 68° |
| 2026-05-08 01:09 | 25.73376 | 123.14733 | 26416 ft | 507 kts | 68° |
| 2026-05-08 01:09 | 25.74614 | 123.18415 | 26682 ft | 511 kts | 69° |
| 2026-05-08 01:10 | 25.75860 | 123.22127 | 26960 ft | 515 kts | 69° |
| 2026-05-08 01:10 | 25.77109 | 123.25852 | 27343 ft | 517 kts | 69° |
| 2026-05-08 01:10 | 25.78362 | 123.29603 | 27692 ft | 520 kts | 69° |
| 2026-05-08 01:10 | 25.79622 | 123.33377 | 28027 ft | 522 kts | 69° |
| 2026-05-08 01:11 | 25.80887 | 123.37163 | 28337 ft | 524 kts | 69° |
| 2026-05-08 01:11 | 25.82156 | 123.40965 | 28652 ft | 527 kts | 69° |
| 2026-05-08 01:11 | 25.83431 | 123.44788 | 28950 ft | 530 kts | 69° |
| 2026-05-08 01:11 | 25.84711 | 123.48631 | 29167 ft | 532 kts | 69° |
| 2026-05-08 01:12 | 25.85997 | 123.52497 | 29458 ft | 535 kts | 69° |
| 2026-05-08 01:12 | 25.87289 | 123.56386 | 29781 ft | 537 kts | 69° |
| 2026-05-08 01:12 | 25.88583 | 123.60285 | 30068 ft | 540 kts | 69° |
| 2026-05-08 01:12 | 25.89878 | 123.64205 | 30263 ft | 542 kts | 69° |
| 2026-05-08 01:13 | 25.91179 | 123.68138 | 30493 ft | 543 kts | 69° |
| 2026-05-08 01:13 | 25.92485 | 123.72086 | 30730 ft | 544 kts | 69° |
| 2026-05-08 01:13 | 25.93789 | 123.76031 | 31049 ft | 543 kts | 69° |
| 2026-05-08 01:13 | 25.95071 | 123.79916 | 31372 ft | 542 kts | 69° |
| 2026-05-08 01:14 | 25.96367 | 123.83849 | 31680 ft | 541 kts | 69° |
| 2026-05-08 01:14 | 25.97660 | 123.87777 | 32004 ft | 540 kts | 69° |
| 2026-05-08 01:14 | 25.98952 | 123.91705 | 32235 ft | 541 kts | 69° |
| 2026-05-08 01:14 | 26.00241 | 123.95630 | 32542 ft | 541 kts | 69° |
| 2026-05-08 01:15 | 26.01657 | 123.99493 | 32777 ft | 540 kts | 62° |
| 2026-05-08 01:15 | 26.03439 | 124.03161 | 33041 ft | 538 kts | 58° |
| 2026-05-08 01:15 | 26.05318 | 124.06759 | 33338 ft | 537 kts | 57° |
| 2026-05-08 01:15 | 26.07234 | 124.10318 | 33639 ft | 536 kts | 57° |
| 2026-05-08 01:16 | 26.09169 | 124.13861 | 33919 ft | 535 kts | 57° |
| 2026-05-08 01:16 | 26.11104 | 124.17390 | 34185 ft | 534 kts | 56° |
| 2026-05-08 01:16 | 26.13037 | 124.20918 | 34412 ft | 534 kts | 56° |
| 2026-05-08 01:16 | 26.14967 | 124.24453 | 34582 ft | 535 kts | 56° |
| 2026-05-08 01:17 | 26.16898 | 124.28002 | 34744 ft | 537 kts | 56° |
| 2026-05-08 01:17 | 26.18827 | 124.31557 | 34985 ft | 536 kts | 56° |
| 2026-05-08 01:17 | 26.20748 | 124.35107 | 35248 ft | 534 kts | 56° |
| 2026-05-08 01:17 | 26.22664 | 124.38652 | 35474 ft | 533 kts | 56° |
| 2026-05-08 01:18 | 26.24576 | 124.42192 | 35663 ft | 533 kts | 56° |
| 2026-05-08 01:18 | 26.26486 | 124.45730 | 35885 ft | 532 kts | 56° |
| 2026-05-08 01:18 | 26.28390 | 124.49260 | 36109 ft | 532 kts | 56° |
| 2026-05-08 01:18 | 26.30294 | 124.52792 | 36273 ft | 532 kts | 56° |
| 2026-05-08 01:19 | 26.32199 | 124.56328 | 36455 ft | 533 kts | 55° |
| 2026-05-08 01:19 | 26.34107 | 124.59871 | 36580 ft | 534 kts | 55° |
| 2026-05-08 01:19 | 26.36015 | 124.63418 | 36734 ft | 533 kts | 55° |
| 2026-05-08 01:19 | 26.37925 | 124.66972 | 36918 ft | 533 kts | 55° |
| 2026-05-08 01:20 | 26.39826 | 124.70513 | 37018 ft | 534 kts | 54° |
| 2026-05-08 01:20 | 26.43657 | 124.77652 | 37034 ft | 538 kts | 55° |
| 2026-05-08 01:21 | 26.47497 | 124.84822 | 37038 ft | 538 kts | 55° |
| 2026-05-08 01:21 | 26.51329 | 124.91992 | 37036 ft | 538 kts | 55° |
| 2026-05-08 01:22 | 26.55160 | 124.99170 | 37030 ft | 538 kts | 55° |
| 2026-05-08 01:22 | 26.58963 | 125.06305 | 37031 ft | 537 kts | 55° |
| 2026-05-08 01:23 | 26.62780 | 125.13481 | 37035 ft | 537 kts | 55° |
| 2026-05-08 01:23 | 26.66600 | 125.20670 | 37037 ft | 538 kts | 55° |
| 2026-05-08 01:24 | 26.70423 | 125.27877 | 37033 ft | 539 kts | 55° |
| 2026-05-08 01:24 | 26.74240 | 125.35087 | 37030 ft | 539 kts | 55° |
| 2026-05-08 01:25 | 26.78060 | 125.42322 | 37062 ft | 540 kts | 55° |
| 2026-05-08 01:25 | 26.81879 | 125.49546 | 37091 ft | 539 kts | 55° |
| 2026-05-08 01:26 | 26.85708 | 125.56811 | 37038 ft | 546 kts | 57° |
| 2026-05-08 01:26 | 26.87524 | 125.60533 | 37153 ft | 545 kts | 58° |
| 2026-05-08 01:26 | 26.89250 | 125.64301 | 37299 ft | 542 kts | 59° |
| 2026-05-08 01:27 | 26.92487 | 125.71936 | 37333 ft | 543 kts | 62° |
| 2026-05-08 01:27 | 26.94030 | 125.75808 | 37228 ft | 545 kts | 63° |
| 2026-05-08 01:27 | 26.95544 | 125.79717 | 37152 ft | 548 kts | 63° |
| 2026-05-08 01:27 | 26.97082 | 125.83652 | 36922 ft | 554 kts | 63° |
| 2026-05-08 01:28 | 26.98640 | 125.87617 | 36751 ft | 556 kts | 63° |
| 2026-05-08 01:28 | 27.00185 | 125.91580 | 36866 ft | 552 kts | 63° |
| 2026-05-08 01:28 | 27.01677 | 125.95457 | 37122 ft | 546 kts | 63° |
| 2026-05-08 01:28 | 27.03160 | 125.99363 | 37363 ft | 543 kts | 63° |
| 2026-05-08 01:29 | 27.04642 | 126.03250 | 37416 ft | 543 kts | 63° |
| 2026-05-08 01:29 | 27.07681 | 126.11052 | 37138 ft | 549 kts | 62° |
| 2026-05-08 01:29 | 27.09241 | 126.14971 | 37033 ft | 551 kts | 62° |
| 2026-05-08 01:30 | 27.10818 | 126.18889 | 37002 ft | 551 kts | 62° |
| 2026-05-08 01:30 | 27.12418 | 126.22828 | 37040 ft | 549 kts | 62° |